Time;durP1;ratioP1;P1;durP2;ratioP2;P2;SDS_P1;SDS_P2;PMS_P1;PMS_P2;Temp;Humidity;BMP_temperature;BMP_pressure;BME280_temperature;BME280_humidity;BME280_pressure;Samples;Min_cycle;Max_cycle;Signal;HPM_P1;HPM_P2
2024/03/26 00:02:23;;;;;;;10.07;5.50;;;23.50;45.00;;;;;;5071024;28;20030;-66
2024/03/26 00:04:49;;;;;;;9.98;5.32;;;23.50;45.00;;;;;;5069611;28;20029;-66
2024/03/26 00:07:15;;;;;;;10.10;4.97;;;23.50;45.10;;;;;;5071081;28;20850;-66
2024/03/26 00:09:41;;;;;;;9.57;5.03;;;23.40;45.50;;;;;;5070843;28;20059;-66
2024/03/26 00:12:06;;;;;;;9.82;4.97;;;23.40;45.00;;;;;;5070392;28;20110;-66
2024/03/26 00:14:32;;;;;;;8.00;4.28;;;23.40;45.00;;;;;;5070730;28;20511;-66
2024/03/26 00:16:57;;;;;;;9.25;4.75;;;23.30;45.00;;;;;;5052873;28;20047;-62
2024/03/26 00:19:23;;;;;;;7.43;4.20;;;23.30;45.00;;;;;;5070842;28;20136;-63
2024/03/26 00:21:49;;;;;;;6.30;3.95;;;23.30;45.10;;;;;;5069988;28;20421;-62
2024/03/26 00:24:14;;;;;;;7.80;3.95;;;23.20;45.10;;;;;;5070779;28;20082;-63
2024/03/26 00:26:40;;;;;;;7.30;3.83;;;23.20;45.10;;;;;;5070422;28;20480;-62
2024/03/26 00:29:05;;;;;;;7.85;4.38;;;23.20;45.00;;;;;;5070698;28;20078;-62
2024/03/26 00:31:33;;;;;;;7.40;3.72;;;23.20;45.10;;;;;;5070549;28;20024;-63
2024/03/26 00:34:03;;;;;;;6.68;3.65;;;23.20;45.10;;;;;;5070377;28;20085;-62
2024/03/26 00:36:30;;;;;;;6.95;3.88;;;23.10;45.10;;;;;;5068773;28;20040;-62
2024/03/26 00:38:56;;;;;;;7.05;4.05;;;23.10;45.10;;;;;;5070507;28;20607;-63
2024/03/26 00:41:21;;;;;;;8.43;4.68;;;23.10;45.20;;;;;;5069830;28;20021;-63
2024/03/26 00:43:47;;;;;;;6.90;3.80;;;23.10;45.20;;;;;;5070311;28;20056;-62
2024/03/26 00:46:13;;;;;;;7.22;4.00;;;23.00;45.10;;;;;;5070165;28;20025;-62
2024/03/26 00:48:39;;;;;;;6.78;3.80;;;23.10;45.10;;;;;;5070290;28;20028;-63
2024/03/26 00:51:05;;;;;;;7.43;3.95;;;23.00;45.20;;;;;;5069140;28;20024;-62
2024/03/26 00:53:30;;;;;;;6.20;3.58;;;23.00;45.20;;;;;;5070180;28;20021;-63
2024/03/26 00:55:56;;;;;;;7.50;3.85;;;23.00;45.20;;;;;;5069704;28;20641;-63
2024/03/26 00:58:22;;;;;;;7.20;3.78;;;22.90;45.20;;;;;;5070301;28;20021;-63
2024/03/26 01:00:48;;;;;;;6.50;3.88;;;22.90;45.20;;;;;;5069333;28;20035;-63
2024/03/26 01:03:14;;;;;;;6.78;3.72;;;22.90;45.20;;;;;;5069838;28;20074;-63
2024/03/26 01:05:39;;;;;;;7.85;3.97;;;22.90;45.20;;;;;;5068892;28;20048;-63
2024/03/26 01:08:06;;;;;;;7.05;4.00;;;22.90;45.30;;;;;;5069763;28;20029;-63
2024/03/26 01:10:32;;;;;;;7.35;3.85;;;22.90;45.30;;;;;;5069073;28;20028;-62
2024/03/26 01:12:57;;;;;;;7.47;4.05;;;22.80;45.20;;;;;;5069304;28;20419;-62
2024/03/26 01:15:23;;;;;;;7.00;3.78;;;22.80;45.30;;;;;;5069542;28;20407;-63
2024/03/26 01:17:49;;;;;;;6.78;3.65;;;22.80;45.30;;;;;;5069813;28;20036;-62
2024/03/26 01:20:15;;;;;;;6.47;3.63;;;22.80;45.30;;;;;;5068509;28;20496;-62
2024/03/26 01:22:41;;;;;;;5.97;3.10;;;22.80;45.40;;;;;;5069195;28;20035;-62
2024/03/26 01:25:09;;;;;;;6.60;3.47;;;22.80;45.40;;;;;;5069803;28;20036;-62
2024/03/26 01:27:35;;;;;;;6.67;3.10;;;22.70;45.30;;;;;;5068799;28;20025;-63
2024/03/26 01:30:01;;;;;;;6.60;3.25;;;22.70;45.40;;;;;;5069168;28;20250;-62
2024/03/26 01:32:27;;;;;;;5.57;3.03;;;22.70;45.40;;;;;;5068816;28;20060;-62
2024/03/26 01:34:52;;;;;;;5.72;3.08;;;22.70;45.40;;;;;;5069249;28;20052;-62
2024/03/26 01:37:19;;;;;;;5.68;2.80;;;22.70;45.40;;;;;;5068195;28;20066;-62
2024/03/26 01:39:44;;;;;;;5.80;2.92;;;22.70;45.40;;;;;;5069418;28;20556;-62
2024/03/26 01:42:10;;;;;;;5.40;3.03;;;22.70;45.40;;;;;;5068820;28;20095;-62
2024/03/26 01:44:35;;;;;;;5.80;3.08;;;22.70;45.40;;;;;;5068994;28;20058;-62
2024/03/26 01:47:01;;;;;;;5.60;2.92;;;22.60;45.40;;;;;;5068555;28;20082;-62
2024/03/26 01:49:32;;;;;;;5.43;3.25;;;22.60;45.90;;;;;;5069210;28;20043;-62
2024/03/26 01:51:58;;;;;;;4.78;2.67;;;22.60;45.40;;;;;;5068283;28;20021;-63
2024/03/26 01:54:24;;;;;;;6.15;3.40;;;22.60;45.40;;;;;;5069000;28;20519;-62
2024/03/26 01:56:50;;;;;;;6.57;3.40;;;22.60;45.50;;;;;;5068196;28;20024;-62
2024/03/26 01:59:16;;;;;;;5.47;3.10;;;22.60;45.50;;;;;;5068957;28;20112;-62
2024/03/26 02:01:42;;;;;;;5.53;3.10;;;22.60;45.50;;;;;;5067591;28;20036;-62
2024/03/26 02:04:08;;;;;;;4.40;2.58;;;22.60;45.50;;;;;;5057937;28;20158;-62
2024/03/26 02:06:33;;;;;;;6.68;3.30;;;22.50;45.50;;;;;;5068005;28;20016;-63
2024/03/26 02:09:02;;;;;;;4.60;2.70;;;22.50;45.50;;;;;;5068719;28;20479;-63
2024/03/26 02:11:27;;;;;;;4.65;2.67;;;22.50;45.50;;;;;;5068634;28;20032;-62
2024/03/26 02:13:53;;;;;;;5.80;3.10;;;22.50;45.50;;;;;;5068843;28;20622;-62
2024/03/26 02:16:19;;;;;;;5.15;2.80;;;22.50;45.50;;;;;;5068671;28;20496;-62
2024/03/26 02:18:44;;;;;;;5.18;2.67;;;22.40;45.50;;;;;;5068928;28;20035;-62
2024/03/26 02:21:10;;;;;;;4.75;2.75;;;22.40;45.50;;;;;;5067639;28;20025;-62
2024/03/26 02:23:36;;;;;;;4.68;2.90;;;22.40;45.50;;;;;;5068700;28;20115;-62
2024/03/26 02:26:02;;;;;;;4.68;2.58;;;22.40;45.60;;;;;;5068064;28;20115;-62
2024/03/26 02:28:27;;;;;;;5.60;2.70;;;22.40;45.60;;;;;;5068402;28;20431;-62
2024/03/26 02:30:53;;;;;;;5.45;2.88;;;22.40;45.60;;;;;;5068602;28;20051;-62
2024/03/26 02:33:18;;;;;;;5.00;2.80;;;22.40;45.60;;;;;;5068560;28;20488;-62
2024/03/26 02:35:44;;;;;;;4.68;2.70;;;22.30;45.60;;;;;;5068658;28;20103;-63
2024/03/26 02:38:10;;;;;;;5.15;2.22;;;22.30;45.60;;;;;;5067612;28;20472;-62
2024/03/26 02:40:35;;;;;;;3.95;2.42;;;22.30;46.20;;;;;;5068544;28;20508;-63
2024/03/26 02:43:01;;;;;;;4.63;2.53;;;22.30;45.70;;;;;;5067499;28;20033;-62
2024/03/26 02:45:27;;;;;;;5.85;2.83;;;22.30;45.70;;;;;;5068153;28;20219;-62
2024/03/26 02:47:53;;;;;;;4.40;2.40;;;22.30;45.70;;;;;;5068382;28;20017;-62
2024/03/26 02:50:19;;;;;;;3.92;2.30;;;22.30;45.80;;;;;;5068519;28;20078;-63
2024/03/26 02:52:44;;;;;;;4.60;2.72;;;22.20;45.70;;;;;;5067111;28;20029;-62
2024/03/26 02:55:10;;;;;;;4.80;2.40;;;22.20;46.30;;;;;;5068485;28;20427;-62
2024/03/26 02:57:36;;;;;;;5.07;2.50;;;22.20;45.80;;;;;;5068253;28;20043;-63
2024/03/26 03:00:01;;;;;;;4.22;2.53;;;22.20;45.80;;;;;;5068212;28;20034;-63
2024/03/26 03:02:27;;;;;;;4.35;2.30;;;22.20;45.80;;;;;;5068527;28;20496;-62
2024/03/26 03:04:52;;;;;;;3.33;2.03;;;22.20;45.80;;;;;;5068157;28;20036;-63
2024/03/26 03:07:18;;;;;;;5.05;2.40;;;22.20;45.80;;;;;;5067379;28;20028;-62
2024/03/26 03:09:47;;;;;;;3.63;2.30;;;22.20;45.80;;;;;;5069658;28;20025;-62
2024/03/26 03:12:12;;;;;;;4.03;2.10;;;22.20;45.90;;;;;;5071534;28;20027;-62
2024/03/26 03:14:38;;;;;;;4.45;2.15;;;22.10;45.80;;;;;;5071607;28;20032;-64
2024/03/26 03:17:04;;;;;;;3.55;2.28;;;22.10;45.90;;;;;;5071893;28;20053;-63
2024/03/26 03:19:30;;;;;;;4.22;2.30;;;22.10;45.90;;;;;;5071538;28;20103;-63
2024/03/26 03:21:55;;;;;;;3.90;2.22;;;22.10;45.90;;;;;;5070597;28;20103;-62
2024/03/26 03:24:21;;;;;;;4.85;2.30;;;22.10;45.90;;;;;;5071452;28;20088;-62
2024/03/26 03:26:47;;;;;;;4.55;2.30;;;22.10;45.90;;;;;;5070997;28;20035;-63
2024/03/26 03:29:12;;;;;;;3.70;2.05;;;22.10;45.90;;;;;;5071694;28;20477;-62
2024/03/26 03:31:38;;;;;;;3.90;2.13;;;22.00;45.90;;;;;;5070982;28;20032;-62
2024/03/26 03:34:03;;;;;;;3.20;1.90;;;22.10;45.90;;;;;;5071169;28;20039;-62
2024/03/26 03:36:29;;;;;;;4.10;2.20;;;22.00;45.90;;;;;;5070265;28;20107;-63
2024/03/26 03:38:54;;;;;;;3.05;1.70;;;22.00;45.90;;;;;;5071296;28;20039;-61
2024/03/26 03:41:20;;;;;;;3.55;1.95;;;22.00;45.90;;;;;;5070992;28;20044;-62
2024/03/26 03:43:46;;;;;;;3.58;2.05;;;21.90;45.90;;;;;;5070947;28;20041;-62
2024/03/26 03:46:11;;;;;;;4.43;2.20;;;22.00;46.00;;;;;;5070990;28;20115;-62
2024/03/26 03:48:37;;;;;;;4.32;2.28;;;21.90;46.00;;;;;;5042234;28;20116;-63
2024/03/26 03:51:03;;;;;;;3.72;2.20;;;21.90;46.00;;;;;;5071199;28;20413;-63
2024/03/26 03:53:29;;;;;;;3.85;2.15;;;21.90;46.00;;;;;;5070307;28;20021;-63
2024/03/26 03:55:54;;;;;;;3.60;2.00;;;21.90;46.00;;;;;;5070542;28;20492;-62
2024/03/26 03:58:20;;;;;;;4.03;2.10;;;21.90;46.00;;;;;;5069788;28;20434;-63
2024/03/26 04:00:45;;;;;;;3.17;1.80;;;21.90;46.00;;;;;;5070766;28;20029;-63
2024/03/26 04:03:11;;;;;;;3.20;1.63;;;21.90;46.10;;;;;;5059546;28;20642;-62
2024/03/26 04:05:37;;;;;;;3.85;1.85;;;21.90;46.00;;;;;;5070961;28;20060;-63
2024/03/26 04:08:04;;;;;;;3.45;2.20;;;21.90;46.10;;;;;;5069916;28;20440;-63
2024/03/26 04:10:39;;;;;;;3.90;1.80;;;21.80;46.00;;;;;;5071006;28;20036;-63
2024/03/26 04:13:04;;;;;;;4.00;2.08;;;21.90;46.10;;;;;;5070386;28;20050;-62
2024/03/26 04:15:30;;;;;;;3.70;1.90;;;21.80;46.10;;;;;;5070908;28;20541;-61
2024/03/26 04:17:56;;;;;;;3.25;1.90;;;21.80;46.10;;;;;;5070668;28;20099;-62
2024/03/26 04:20:21;;;;;;;3.45;1.70;;;21.80;46.10;;;;;;5070136;28;20028;-62
2024/03/26 04:22:48;;;;;;;2.97;1.75;;;21.80;46.10;;;;;;5069424;28;20395;-62
2024/03/26 04:25:16;;;;;;;3.33;1.85;;;21.80;46.10;;;;;;5070479;28;20021;-62
2024/03/26 04:27:42;;;;;;;3.37;1.80;;;21.80;46.10;;;;;;5069826;28;20031;-61
2024/03/26 04:30:08;;;;;;;3.20;1.80;;;21.80;46.20;;;;;;5070375;28;21091;-62
2024/03/26 04:32:35;;;;;;;3.30;1.80;;;21.80;46.20;;;;;;5070588;28;20040;-62
2024/03/26 04:35:01;;;;;;;2.95;1.70;;;21.80;46.20;;;;;;5070471;28;20468;-62
2024/03/26 04:37:27;;;;;;;3.97;1.80;;;21.70;46.10;;;;;;5069363;28;20028;-62
2024/03/26 04:39:52;;;;;;;3.53;1.80;;;21.70;46.20;;;;;;5070190;28;20025;-62
2024/03/26 04:42:18;;;;;;;2.92;1.80;;;21.70;46.20;;;;;;5070008;28;20473;-62
2024/03/26 04:44:44;;;;;;;4.30;2.00;;;21.70;46.20;;;;;;5070248;28;20032;-63
2024/03/26 04:47:10;;;;;;;2.97;1.58;;;21.70;46.20;;;;;;5070190;28;20046;-62
2024/03/26 04:49:35;;;;;;;2.67;1.55;;;21.70;46.20;;;;;;5069948;28;20027;-62
2024/03/26 04:52:01;;;;;;;3.70;1.80;;;21.70;46.30;;;;;;5069130;28;20095;-62
2024/03/26 04:54:26;;;;;;;2.92;1.60;;;21.70;46.30;;;;;;5070067;28;20952;-62
2024/03/26 04:56:52;;;;;;;3.72;1.83;;;21.70;46.30;;;;;;5069759;28;20032;-62
2024/03/26 04:59:17;;;;;;;3.70;1.90;;;21.70;46.30;;;;;;5068924;28;20480;-61
2024/03/26 05:01:43;;;;;;;2.90;1.70;;;21.70;46.30;;;;;;5069975;28;20025;-62
2024/03/26 05:04:09;;;;;;;2.95;1.50;;;21.70;46.30;;;;;;5069563;28;20115;-62
2024/03/26 05:06:34;;;;;;;2.70;1.58;;;21.70;46.30;;;;;;5069982;28;20033;-62
2024/03/26 05:09:00;;;;;;;3.25;1.70;;;21.70;46.40;;;;;;5068569;28;20016;-62
2024/03/26 05:11:25;;;;;;;3.83;1.60;;;21.70;46.40;;;;;;5069425;28;20028;-62
2024/03/26 05:13:51;;;;;;;2.45;1.45;;;21.60;46.30;;;;;;5069390;28;20051;-61
2024/03/26 05:16:16;;;;;;;2.83;1.50;;;21.60;46.30;;;;;;5069330;28;20581;-62
2024/03/26 05:18:42;;;;;;;3.17;1.52;;;21.60;46.40;;;;;;5068998;28;20132;-61
2024/03/26 05:21:08;;;;;;;2.35;1.30;;;21.60;46.40;;;;;;5069376;28;20675;-62
2024/03/26 05:23:33;;;;;;;2.83;1.48;;;21.60;46.40;;;;;;5068030;28;20028;-62
2024/03/26 05:25:59;;;;;;;3.22;1.42;;;21.60;46.70;;;;;;5069159;28;20134;-62
2024/03/26 05:28:24;;;;;;;2.58;1.40;;;21.60;46.40;;;;;;5068933;28;20025;-62
2024/03/26 05:30:50;;;;;;;2.45;1.40;;;21.60;46.50;;;;;;5068794;28;20036;-62
2024/03/26 05:33:16;;;;;;;2.63;1.40;;;21.60;46.50;;;;;;5068770;28;20029;-62
2024/03/26 05:35:44;;;;;;;2.00;1.20;;;21.60;46.50;;;;;;5069137;28;20436;-62
2024/03/26 05:38:10;;;;;;;2.67;1.40;;;21.60;46.50;;;;;;5067348;28;20028;-62
2024/03/26 05:40:36;;;;;;;2.03;1.20;;;21.60;46.50;;;;;;5069181;28;20299;-62
2024/03/26 05:43:01;;;;;;;2.42;1.45;;;21.60;46.50;;;;;;5068739;28;20032;-62
2024/03/26 05:45:27;;;;;;;2.40;1.42;;;21.60;46.50;;;;;;5069095;28;20029;-62
2024/03/26 05:47:52;;;;;;;2.22;1.50;;;21.50;46.50;;;;;;5069059;28;20043;-62
2024/03/26 05:50:18;;;;;;;2.58;1.30;;;21.50;46.50;;;;;;5069006;28;20032;-62
2024/03/26 05:52:44;;;;;;;2.17;1.30;;;21.50;46.50;;;;;;5050448;28;20146;-62
2024/03/26 05:55:10;;;;;;;2.10;1.13;;;21.50;47.00;;;;;;5068944;28;20032;-62
2024/03/26 05:57:36;;;;;;;2.70;1.40;;;21.50;47.00;;;;;;5068715;28;20025;-62
2024/03/26 06:00:02;;;;;;;2.25;1.20;;;21.50;46.50;;;;;;5068627;28;20028;-62
2024/03/26 06:02:27;;;;;;;1.70;1.30;;;21.50;46.50;;;;;;5068798;28;20037;-61
2024/03/26 06:04:53;;;;;;;2.83;1.40;;;21.50;46.50;;;;;;5068743;28;20099;-61
2024/03/26 06:07:18;;;;;;;2.28;1.25;;;21.50;46.60;;;;;;5068798;28;20115;-62
2024/03/26 06:09:44;;;;;;;2.58;1.40;;;21.50;47.10;;;;;;5067834;28;20035;-63
2024/03/26 06:12:10;;;;;;;1.90;1.10;;;21.50;46.60;;;;;;5068826;28;20028;-62
2024/03/26 06:14:35;;;;;;;2.15;1.20;;;21.50;46.60;;;;;;5068340;28;20576;-63
2024/03/26 06:17:01;;;;;;;2.60;1.30;;;21.50;46.60;;;;;;5068705;28;20028;-62
2024/03/26 06:19:26;;;;;;;2.22;1.30;;;21.50;46.60;;;;;;5068739;28;20036;-63
2024/03/26 06:21:52;;;;;;;2.20;1.30;;;21.40;46.60;;;;;;5068468;28;20036;-63
2024/03/26 06:24:18;;;;;;;2.53;1.25;;;21.50;46.60;;;;;;5067220;28;20036;-63
2024/03/26 06:26:43;;;;;;;2.50;1.23;;;21.50;46.60;;;;;;5068503;28;20040;-63
2024/03/26 06:29:10;;;;;;;2.40;1.35;;;21.40;46.60;;;;;;5068080;28;20032;-62
2024/03/26 06:31:36;;;;;;;1.73;1.02;;;21.40;46.60;;;;;;5068598;28;20067;-63
2024/03/26 06:34:01;;;;;;;1.40;1.00;;;21.40;46.60;;;;;;5068577;28;20495;-62
2024/03/26 06:36:27;;;;;;;2.75;1.30;;;21.40;46.60;;;;;;5068689;28;20044;-62
2024/03/26 06:38:53;;;;;;;2.03;1.30;;;21.40;46.60;;;;;;5067332;28;20360;-62
2024/03/26 06:41:19;;;;;;;2.25;1.30;;;21.40;46.60;;;;;;5068676;28;20070;-62
2024/03/26 06:43:44;;;;;;;2.22;1.23;;;21.40;46.60;;;;;;5070823;28;20020;-62
2024/03/26 06:46:10;;;;;;;2.22;1.20;;;21.40;46.60;;;;;;5072750;28;20082;-61
2024/03/26 06:48:35;;;;;;;2.10;1.17;;;21.40;46.70;;;;;;5072602;28;20025;-62
2024/03/26 06:51:02;;;;;;;1.85;1.10;;;21.40;46.70;;;;;;5072001;28;20082;-62
2024/03/26 06:53:27;;;;;;;2.83;1.40;;;21.40;46.70;;;;;;5070987;28;20078;-62
2024/03/26 06:55:53;;;;;;;2.53;1.27;;;21.40;46.70;;;;;;5046030;28;20422;-62
2024/03/26 06:58:19;;;;;;;2.65;1.13;;;21.40;46.70;;;;;;5071717;28;20064;-61
2024/03/26 07:00:45;;;;;;;2.22;1.20;;;21.40;46.70;;;;;;5072253;28;20021;-62
2024/03/26 07:03:11;;;;;;;1.83;1.23;;;21.40;46.80;;;;;;5072111;28;20068;-62
2024/03/26 07:05:37;;;;;;;2.20;1.15;;;21.40;46.80;;;;;;5072294;28;20357;-61
2024/03/26 07:08:03;;;;;;;1.92;1.20;;;21.40;46.80;;;;;;5070825;28;20024;-62
2024/03/26 07:10:29;;;;;;;2.08;1.13;;;21.30;46.80;;;;;;5072213;28;20040;-63
2024/03/26 07:12:55;;;;;;;2.10;1.00;;;21.40;46.90;;;;;;5071846;28;20102;-63
2024/03/26 07:15:20;;;;;;;1.95;1.25;;;21.40;46.90;;;;;;5070700;28;20427;-63
2024/03/26 07:17:46;;;;;;;1.92;1.10;;;21.40;46.90;;;;;;5072038;28;20024;-64
2024/03/26 07:20:11;;;;;;;1.65;1.10;;;21.30;46.90;;;;;;5071988;28;20025;-66
2024/03/26 07:22:38;;;;;;;1.83;1.10;;;21.40;46.90;;;;;;5071852;28;20118;-65
2024/03/26 07:25:04;;;;;;;1.95;1.15;;;21.30;46.90;;;;;;5070406;28;20028;-65
2024/03/26 07:27:30;;;;;;;2.10;1.15;;;21.30;46.90;;;;;;5072098;28;20031;-65
2024/03/26 07:29:56;;;;;;;1.70;1.00;;;21.30;46.90;;;;;;5070846;28;20400;-65
2024/03/26 07:32:23;;;;;;;2.00;1.00;;;21.30;46.90;;;;;;5062100;28;20424;-65
2024/03/26 07:34:48;;;;;;;2.13;1.05;;;21.30;46.90;;;;;;5071527;28;20120;-64
2024/03/26 07:37:14;;;;;;;2.30;1.02;;;21.30;46.90;;;;;;5071458;28;20135;-65
2024/03/26 07:39:40;;;;;;;1.73;1.00;;;21.30;46.90;;;;;;5070491;28;20128;-63
2024/03/26 07:42:06;;;;;;;1.77;1.08;;;21.30;47.00;;;;;;5071493;28;20447;-63
2024/03/26 07:44:32;;;;;;;1.95;1.20;;;21.30;47.00;;;;;;5071172;28;20031;-63
2024/03/26 07:46:58;;;;;;;1.35;1.00;;;21.30;46.90;;;;;;5071219;28;20028;-63
2024/03/26 07:49:24;;;;;;;1.63;1.00;;;21.30;46.90;;;;;;5071350;28;20048;-63
2024/03/26 07:51:51;;;;;;;1.75;1.10;;;21.30;46.90;;;;;;5071429;28;20376;-62
2024/03/26 07:54:19;;;;;;;1.67;1.00;;;21.30;47.00;;;;;;5069238;28;20519;-62
2024/03/26 07:56:45;;;;;;;2.20;1.10;;;21.30;47.00;;;;;;5071221;28;20024;-63
2024/03/26 07:59:11;;;;;;;2.05;1.10;;;21.30;46.90;;;;;;5070700;28;20094;-62
2024/03/26 08:01:36;;;;;;;1.90;1.00;;;21.30;46.90;;;;;;5071186;28;20381;-63
2024/03/26 08:04:02;;;;;;;2.38;1.20;;;21.30;47.50;;;;;;5071455;28;20082;-63
2024/03/26 08:06:27;;;;;;;2.05;1.00;;;21.30;47.00;;;;;;5070764;28;20033;-62
2024/03/26 08:08:54;;;;;;;2.17;1.05;;;21.30;47.00;;;;;;5069913;28;20380;-64
2024/03/26 08:11:19;;;;;;;1.92;1.00;;;21.30;47.00;;;;;;5070964;28;20081;-64
2024/03/26 08:13:45;;;;;;;2.10;1.02;;;21.30;47.00;;;;;;5070376;28;20484;-64
2024/03/26 08:16:10;;;;;;;1.73;1.00;;;21.30;47.00;;;;;;5070480;28;20376;-63
2024/03/26 08:18:36;;;;;;;1.67;1.00;;;21.30;47.00;;;;;;5070878;28;20071;-64
2024/03/26 08:21:03;;;;;;;1.95;1.00;;;21.30;47.00;;;;;;5070686;28;20033;-63
2024/03/26 08:23:29;;;;;;;1.48;0.88;;;21.30;47.00;;;;;;5069876;28;20579;-63
2024/03/26 08:25:55;;;;;;;1.17;0.90;;;21.30;47.00;;;;;;5070247;28;20111;-63
2024/03/26 08:28:21;;;;;;;1.95;1.05;;;21.30;47.00;;;;;;5070240;28;20146;-66
2024/03/26 08:30:47;;;;;;;1.83;1.00;;;21.30;47.00;;;;;;5070065;28;20521;-65
2024/03/26 08:33:13;;;;;;;1.98;1.10;;;21.30;47.00;;;;;;5070457;28;20104;-65
2024/03/26 08:35:42;;;;;;;1.55;1.00;;;21.30;47.10;;;;;;5070447;28;20165;-65
2024/03/26 08:38:08;;;;;;;2.25;1.27;;;21.30;47.00;;;;;;5070278;28;20032;-65
2024/03/26 08:40:35;;;;;;;2.25;1.27;;;21.30;47.10;;;;;;5069120;28;20040;-65
2024/03/26 08:43:01;;;;;;;3.83;2.20;;;21.30;47.10;;;;;;5070395;28;20082;-65
2024/03/26 08:45:27;;;;;;;4.43;2.65;;;21.30;47.10;;;;;;5069699;28;20075;-65
2024/03/26 08:47:52;;;;;;;4.95;3.47;;;21.30;47.10;;;;;;5070121;28;20025;-65
2024/03/26 08:50:18;;;;;;;7.25;4.93;;;21.30;47.10;;;;;;5070284;28;20037;-63
2024/03/26 08:52:44;;;;;;;8.20;5.65;;;21.20;47.00;;;;;;5070305;28;20332;-63
2024/03/26 08:55:10;;;;;;;8.95;6.63;;;21.20;47.00;;;;;;5069047;28;20028;-63
2024/03/26 08:57:36;;;;;;;10.60;7.82;;;21.20;47.00;;;;;;5069893;28;20032;-62
2024/03/26 09:00:07;;;;;;;12.65;9.57;;;21.20;47.00;;;;;;5069687;28;20538;-63
2024/03/26 09:02:34;;;;;;;13.55;10.63;;;21.20;47.10;;;;;;5069699;28;20020;-63
2024/03/26 09:05:00;;;;;;;14.68;11.20;;;21.20;47.10;;;;;;5069826;28;20036;-63
2024/03/26 09:07:26;;;;;;;16.67;12.27;;;21.20;47.00;;;;;;5069828;28;20110;-63
2024/03/26 09:09:51;;;;;;;16.75;12.98;;;21.20;47.10;;;;;;5068512;28;20035;-63
2024/03/26 09:12:17;;;;;;;17.60;13.40;;;21.20;47.10;;;;;;5069783;28;20028;-63
2024/03/26 09:14:43;;;;;;;20.08;14.95;;;21.20;47.10;;;;;;5069164;28;20502;-63
2024/03/26 09:17:09;;;;;;;19.55;15.07;;;21.20;47.10;;;;;;5069502;28;20204;-63
2024/03/26 09:19:34;;;;;;;20.48;15.82;;;21.20;47.10;;;;;;5069981;28;20037;-63
2024/03/26 09:22:00;;;;;;;21.08;16.35;;;21.20;47.10;;;;;;5069539;28;20029;-62
2024/03/26 09:24:25;;;;;;;21.90;16.65;;;21.20;47.10;;;;;;5068586;28;20025;-62
2024/03/26 09:26:51;;;;;;;22.10;16.75;;;21.20;47.10;;;;;;5069442;28;20038;-63
2024/03/26 09:29:16;;;;;;;21.80;16.92;;;21.20;47.10;;;;;;5069466;28;20110;-63
2024/03/26 09:31:42;;;;;;;22.20;17.63;;;21.20;47.10;;;;;;5069059;28;20040;-62
2024/03/26 09:34:07;;;;;;;24.13;18.77;;;21.20;47.10;;;;;;5069294;28;20110;-63
2024/03/26 09:36:33;;;;;;;24.77;18.98;;;21.20;47.10;;;;;;5069302;28;20036;-62
2024/03/26 09:38:59;;;;;;;25.23;19.85;;;21.20;47.20;;;;;;5069185;28;20495;-63
2024/03/26 09:41:28;;;;;;;27.25;20.55;;;21.20;47.10;;;;;;5068687;28;20519;-63
2024/03/26 09:43:54;;;;;;;28.13;21.20;;;21.20;47.20;;;;;;5069504;28;20055;-62
2024/03/26 09:46:22;;;;;;;29.13;21.80;;;21.20;47.20;;;;;;5068522;28;20036;-62
2024/03/26 09:48:48;;;;;;;26.88;21.17;;;21.20;47.20;;;;;;5069225;28;20082;-62
2024/03/26 09:51:14;;;;;;;26.98;21.33;;;21.20;47.20;;;;;;5068889;28;20032;-63
2024/03/26 09:53:42;;;;;;;28.45;22.20;;;21.20;47.20;;;;;;5069367;28;20091;-62
2024/03/26 09:56:08;;;;;;;27.45;21.38;;;21.20;47.20;;;;;;5067070;28;20138;-63
2024/03/26 09:58:34;;;;;;;27.60;22.23;;;21.20;47.20;;;;;;5068815;28;20048;-62
2024/03/26 10:01:02;;;;;;;26.58;21.67;;;21.20;47.20;;;;;;5066229;28;20103;-62
2024/03/26 10:03:30;;;;;;;28.42;22.02;;;21.20;47.30;;;;;;5068748;28;20533;-62
2024/03/26 10:05:56;;;;;;;27.42;22.30;;;21.20;47.20;;;;;;5068505;28;20037;-62
2024/03/26 10:08:21;;;;;;;27.20;22.48;;;21.20;47.30;;;;;;5068899;28;20421;-62
2024/03/26 10:10:47;;;;;;;27.20;21.42;;;21.20;47.20;;;;;;5067570;28;20032;-62
2024/03/26 10:13:13;;;;;;;25.92;20.17;;;21.20;47.30;;;;;;5068533;28;20029;-63
2024/03/26 10:15:39;;;;;;;29.55;22.85;;;21.20;47.50;;;;;;5068241;28;20032;-62
2024/03/26 10:18:06;;;;;;;27.10;21.40;;;21.20;47.60;;;;;;5068160;28;20093;-62
2024/03/26 10:20:32;;;;;;;29.48;21.45;;;21.30;47.70;;;;;;5069076;28;20029;-63
2024/03/26 10:22:59;;;;;;;25.35;20.73;;;21.30;47.60;;;;;;5068833;28;20550;-63
2024/03/26 10:25:25;;;;;;;25.70;21.05;;;21.40;47.60;;;;;;5067411;28;20104;-63
2024/03/26 10:27:50;;;;;;;26.65;20.42;;;21.40;47.60;;;;;;5068756;28;20123;-63
2024/03/26 10:30:16;;;;;;;23.85;19.40;;;21.40;47.60;;;;;;5068321;28;20025;-62
2024/03/26 10:32:43;;;;;;;23.52;19.08;;;21.40;47.60;;;;;;5068669;28;20152;-62
2024/03/26 10:35:12;;;;;;;23.60;18.90;;;21.50;47.60;;;;;;5068584;28;20033;-63
2024/03/26 10:37:37;;;;;;;23.63;19.25;;;21.50;47.50;;;;;;5068493;28;20024;-62
2024/03/26 10:40:14;;;;;;;23.30;19.33;;;21.50;47.50;;;;;;5067433;28;20051;-62
2024/03/26 10:42:47;;;;;;;23.83;18.50;;;21.50;47.50;;;;;;5068450;28;20052;-63
2024/03/26 10:45:16;;;;;;;22.42;17.17;;;21.60;47.50;;;;;;5066397;28;20028;-62
2024/03/26 10:47:43;;;;;;;22.83;17.38;;;21.60;47.50;;;;;;5068417;28;20029;-63
2024/03/26 10:50:13;;;;;;;22.08;17.23;;;21.60;47.50;;;;;;5068307;28;20032;-63
2024/03/26 10:52:40;;;;;;;20.52;16.20;;;21.60;47.40;;;;;;5058597;28;20020;-65
2024/03/26 10:55:10;;;;;;;18.15;14.82;;;21.60;47.40;;;;;;5067121;28;20021;-63
2024/03/26 10:57:35;;;;;;;20.98;15.32;;;21.60;47.40;;;;;;5068097;28;20166;-63
2024/03/26 11:00:04;;;;;;;20.90;15.50;;;21.70;47.40;;;;;;5067646;28;20111;-63
2024/03/26 11:02:31;;;;;;;20.85;16.30;;;21.70;47.30;;;;;;5068599;28;20051;-63
2024/03/26 11:04:58;;;;;;;18.60;14.93;;;21.70;47.30;;;;;;5068251;28;20533;-63
2024/03/26 11:07:23;;;;;;;20.05;15.82;;;21.70;47.20;;;;;;5067974;28;20040;-63
2024/03/26 11:10:00;;;;;;;20.25;15.98;;;21.70;47.20;;;;;;5067351;28;20033;-62
2024/03/26 11:12:26;;;;;;;21.25;16.45;;;21.70;47.20;;;;;;5068374;28;20028;-62
2024/03/26 11:14:52;;;;;;;18.88;15.55;;;21.70;47.10;;;;;;5068209;28;20446;-63
2024/03/26 11:17:18;;;;;;;18.20;15.35;;;21.80;47.20;;;;;;5067926;28;20135;-63
2024/03/26 11:19:43;;;;;;;19.95;15.75;;;21.80;47.10;;;;;;5068041;28;20085;-63
2024/03/26 11:22:11;;;;;;;20.73;15.75;;;21.80;47.10;;;;;;5067870;28;20111;-63
2024/03/26 11:24:37;;;;;;;20.52;16.10;;;21.80;47.10;;;;;;5068376;28;20028;-63
2024/03/26 11:27:04;;;;;;;19.88;15.60;;;21.80;47.00;;;;;;5066694;28;20368;-62
2024/03/26 11:29:31;;;;;;;19.35;15.73;;;21.80;47.00;;;;;;5068211;28;20024;-63
2024/03/26 11:31:59;;;;;;;19.27;15.38;;;21.90;47.00;;;;;;5071265;28;20029;-63
2024/03/26 11:34:25;;;;;;;18.40;14.65;;;21.90;47.00;;;;;;5071277;28;20089;-63
2024/03/26 11:36:55;;;;;;;21.00;15.65;;;21.90;46.90;;;;;;5071465;28;20077;-62
2024/03/26 11:39:25;;;;;;;18.95;15.30;;;21.90;46.90;;;;;;5070929;28;20024;-62
2024/03/26 11:41:52;;;;;;;17.98;14.45;;;21.90;46.90;;;;;;5070076;28;20024;-63
2024/03/26 11:44:17;;;;;;;17.83;14.27;;;21.90;46.90;;;;;;5071417;28;20464;-63
2024/03/26 11:46:49;;;;;;;17.20;13.82;;;22.00;46.90;;;;;;5069740;28;20043;-62
2024/03/26 11:49:14;;;;;;;16.08;13.43;;;21.90;46.80;;;;;;5071380;28;20025;-63
2024/03/26 11:51:41;;;;;;;18.60;14.07;;;22.00;46.80;;;;;;5071304;28;20027;-63
2024/03/26 11:54:08;;;;;;;17.90;12.85;;;22.00;46.90;;;;;;5071408;28;20021;-62
2024/03/26 11:56:34;;;;;;;16.60;13.23;;;22.00;47.10;;;;;;5070127;28;20062;-62
2024/03/26 11:59:00;;;;;;;16.58;12.95;;;22.00;47.00;;;;;;5071125;28;20027;-65
2024/03/26 12:01:26;;;;;;;16.65;13.60;;;22.00;46.90;;;;;;5070685;28;20024;-66
2024/03/26 12:03:56;;;;;;;15.38;12.23;;;22.00;46.90;;;;;;5071128;28;20369;-66
2024/03/26 12:06:27;;;;;;;15.00;12.15;;;22.00;46.90;;;;;;5069105;28;20039;-65
2024/03/26 12:08:54;;;;;;;16.60;12.65;;;22.00;47.00;;;;;;5069908;28;20032;-63
2024/03/26 12:11:20;;;;;;;18.73;13.15;;;22.00;46.90;;;;;;5070182;28;20029;-64
2024/03/26 12:13:46;;;;;;;15.27;12.30;;;22.00;47.00;;;;;;5070826;28;20083;-63
2024/03/26 12:16:28;;;;;;;13.65;10.93;;;22.00;47.00;;;;;;5070589;28;20544;-63
2024/03/26 12:18:55;;;;;;;15.50;11.60;;;22.10;47.20;;;;;;5070826;28;20044;-63
2024/03/26 12:21:22;;;;;;;14.60;10.98;;;22.10;47.10;;;;;;5070565;28;20048;-62
2024/03/26 12:23:52;;;;;;;14.68;10.93;;;22.10;47.30;;;;;;5070676;28;20028;-62
2024/03/26 12:26:19;;;;;;;13.13;10.73;;;22.10;47.10;;;;;;5069179;28;20184;-63
2024/03/26 12:28:45;;;;;;;15.93;11.48;;;22.10;47.10;;;;;;5070651;28;20036;-62
2024/03/26 12:31:11;;;;;;;15.02;11.32;;;22.10;47.10;;;;;;5070070;28;20032;-64
2024/03/26 12:33:37;;;;;;;12.05;10.52;;;22.10;47.10;;;;;;5070483;28;20025;-63
2024/03/26 12:36:04;;;;;;;13.63;9.63;;;22.10;47.10;;;;;;5070706;28;20056;-63